sensor_id;sensor_type;location;lat;lon;timestamp;P1;durP1;ratioP1;P2;durP2;ratioP2
67869;SDS011;54673;52.262;6.830;2024-03-06T00:02:18;35.67;;;15.07;;
67869;SDS011;54673;52.262;6.830;2024-03-06T00:04:44;34.75;;;15.43;;
67869;SDS011;54673;52.262;6.830;2024-03-06T00:07:10;32.70;;;15.43;;
67869;SDS011;54673;52.262;6.830;2024-03-06T00:09:35;37.25;;;15.48;;
67869;SDS011;54673;52.262;6.830;2024-03-06T00:12:02;38.30;;;16.00;;
67869;SDS011;54673;52.262;6.830;2024-03-06T00:14:27;40.78;;;16.63;;
67869;SDS011;54673;52.262;6.830;2024-03-06T00:16:53;32.73;;;15.40;;
67869;SDS011;54673;52.262;6.830;2024-03-06T00:19:21;38.50;;;16.98;;
67869;SDS011;54673;52.262;6.830;2024-03-06T00:21:47;38.50;;;15.43;;
67869;SDS011;54673;52.262;6.830;2024-03-06T00:24:13;34.80;;;15.10;;
67869;SDS011;54673;52.262;6.830;2024-03-06T00:26:45;48.88;;;19.30;;
67869;SDS011;54673;52.262;6.830;2024-03-06T00:29:12;46.70;;;20.23;;
67869;SDS011;54673;52.262;6.830;2024-03-06T00:31:42;44.60;;;18.52;;
67869;SDS011;54673;52.262;6.830;2024-03-06T00:34:09;53.53;;;21.90;;
67869;SDS011;54673;52.262;6.830;2024-03-06T00:36:35;39.35;;;16.40;;
67869;SDS011;54673;52.262;6.830;2024-03-06T00:39:00;41.43;;;16.73;;
67869;SDS011;54673;52.262;6.830;2024-03-06T00:41:26;45.85;;;18.33;;
67869;SDS011;54673;52.262;6.830;2024-03-06T00:43:51;47.53;;;18.17;;
67869;SDS011;54673;52.262;6.830;2024-03-06T00:46:17;45.20;;;17.97;;
67869;SDS011;54673;52.262;6.830;2024-03-06T00:48:42;37.38;;;16.95;;
67869;SDS011;54673;52.262;6.830;2024-03-06T00:51:08;40.60;;;15.23;;
67869;SDS011;54673;52.262;6.830;2024-03-06T00:53:34;60.10;;;21.85;;
67869;SDS011;54673;52.262;6.830;2024-03-06T00:56:00;61.60;;;21.83;;
67869;SDS011;54673;52.262;6.830;2024-03-06T00:58:26;46.75;;;18.95;;
67869;SDS011;54673;52.262;6.830;2024-03-06T01:00:51;43.47;;;16.93;;
67869;SDS011;54673;52.262;6.830;2024-03-06T01:03:17;46.30;;;17.77;;
67869;SDS011;54673;52.262;6.830;2024-03-06T01:05:42;55.85;;;20.58;;
67869;SDS011;54673;52.262;6.830;2024-03-06T01:08:08;44.17;;;17.70;;
67869;SDS011;54673;52.262;6.830;2024-03-06T01:10:33;48.37;;;18.57;;
67869;SDS011;54673;52.262;6.830;2024-03-06T01:12:59;63.53;;;22.10;;
67869;SDS011;54673;52.262;6.830;2024-03-06T01:15:25;40.77;;;16.63;;
67869;SDS011;54673;52.262;6.830;2024-03-06T01:17:50;46.63;;;18.80;;
67869;SDS011;54673;52.262;6.830;2024-03-06T01:20:16;44.90;;;17.40;;
67869;SDS011;54673;52.262;6.830;2024-03-06T01:22:41;46.37;;;18.23;;
67869;SDS011;54673;52.262;6.830;2024-03-06T01:25:07;48.50;;;18.02;;
67869;SDS011;54673;52.262;6.830;2024-03-06T01:27:33;61.72;;;23.67;;
67869;SDS011;54673;52.262;6.830;2024-03-06T01:29:59;54.85;;;20.67;;
67869;SDS011;54673;52.262;6.830;2024-03-06T01:32:24;49.45;;;19.10;;
67869;SDS011;54673;52.262;6.830;2024-03-06T01:34:50;49.15;;;19.50;;
67869;SDS011;54673;52.262;6.830;2024-03-06T01:37:15;56.17;;;19.63;;
67869;SDS011;54673;52.262;6.830;2024-03-06T01:39:41;44.97;;;18.60;;
67869;SDS011;54673;52.262;6.830;2024-03-06T01:42:07;50.67;;;18.98;;
67869;SDS011;54673;52.262;6.830;2024-03-06T01:44:32;49.67;;;18.43;;
67869;SDS011;54673;52.262;6.830;2024-03-06T01:46:58;53.60;;;19.45;;
67869;SDS011;54673;52.262;6.830;2024-03-06T01:49:23;48.63;;;18.53;;
67869;SDS011;54673;52.262;6.830;2024-03-06T01:51:55;45.55;;;18.13;;
67869;SDS011;54673;52.262;6.830;2024-03-06T01:54:22;48.13;;;18.67;;
67869;SDS011;54673;52.262;6.830;2024-03-06T01:56:49;50.33;;;19.02;;
67869;SDS011;54673;52.262;6.830;2024-03-06T01:59:16;42.17;;;18.10;;
67869;SDS011;54673;52.262;6.830;2024-03-06T02:01:44;67.53;;;23.02;;
67869;SDS011;54673;52.262;6.830;2024-03-06T02:04:11;56.83;;;20.85;;
67869;SDS011;54673;52.262;6.830;2024-03-06T02:06:41;47.97;;;19.13;;
67869;SDS011;54673;52.262;6.830;2024-03-06T02:09:07;59.08;;;22.70;;
67869;SDS011;54673;52.262;6.830;2024-03-06T02:11:34;50.78;;;18.77;;
67869;SDS011;54673;52.262;6.830;2024-03-06T02:13:59;49.17;;;18.73;;
67869;SDS011;54673;52.262;6.830;2024-03-06T02:16:25;49.60;;;18.47;;
67869;SDS011;54673;52.262;6.830;2024-03-06T02:18:52;55.00;;;19.50;;
67869;SDS011;54673;52.262;6.830;2024-03-06T02:21:18;62.72;;;22.33;;
67869;SDS011;54673;52.262;6.830;2024-03-06T02:23:48;45.97;;;17.47;;
67869;SDS011;54673;52.262;6.830;2024-03-06T02:26:14;50.60;;;18.60;;
67869;SDS011;54673;52.262;6.830;2024-03-06T02:28:46;47.13;;;18.50;;
67869;SDS011;54673;52.262;6.830;2024-03-06T02:31:15;45.33;;;17.60;;
67869;SDS011;54673;52.262;6.830;2024-03-06T02:33:42;49.33;;;19.07;;
67869;SDS011;54673;52.262;6.830;2024-03-06T02:36:14;42.45;;;17.00;;
67869;SDS011;54673;52.262;6.830;2024-03-06T02:38:42;46.35;;;18.30;;
67869;SDS011;54673;52.262;6.830;2024-03-06T02:41:08;48.05;;;18.15;;
67869;SDS011;54673;52.262;6.830;2024-03-06T02:43:34;47.63;;;18.23;;
67869;SDS011;54673;52.262;6.830;2024-03-06T02:46:00;46.67;;;18.03;;
67869;SDS011;54673;52.262;6.830;2024-03-06T02:48:25;46.38;;;17.50;;
67869;SDS011;54673;52.262;6.830;2024-03-06T02:50:51;49.13;;;19.00;;
67869;SDS011;54673;52.262;6.830;2024-03-06T02:53:17;52.20;;;19.03;;
67869;SDS011;54673;52.262;6.830;2024-03-06T02:55:42;50.45;;;19.23;;
67869;SDS011;54673;52.262;6.830;2024-03-06T02:58:08;54.97;;;19.43;;
67869;SDS011;54673;52.262;6.830;2024-03-06T03:00:33;50.38;;;19.63;;
67869;SDS011;54673;52.262;6.830;2024-03-06T03:02:59;48.33;;;18.65;;
67869;SDS011;54673;52.262;6.830;2024-03-06T03:05:24;52.83;;;18.77;;
67869;SDS011;54673;52.262;6.830;2024-03-06T03:07:50;52.43;;;18.07;;
67869;SDS011;54673;52.262;6.830;2024-03-06T03:10:16;44.20;;;17.83;;
67869;SDS011;54673;52.262;6.830;2024-03-06T03:12:42;49.95;;;17.75;;
67869;SDS011;54673;52.262;6.830;2024-03-06T03:15:08;63.57;;;22.37;;
67869;SDS011;54673;52.262;6.830;2024-03-06T03:17:35;52.25;;;20.13;;
67869;SDS011;54673;52.262;6.830;2024-03-06T03:20:03;80.67;;;26.27;;
67869;SDS011;54673;52.262;6.830;2024-03-06T03:22:36;55.75;;;20.52;;
67869;SDS011;54673;52.262;6.830;2024-03-06T03:25:03;53.22;;;19.52;;
67869;SDS011;54673;52.262;6.830;2024-03-06T03:27:32;48.80;;;19.17;;
67869;SDS011;54673;52.262;6.830;2024-03-06T03:29:58;46.08;;;16.92;;
67869;SDS011;54673;52.262;6.830;2024-03-06T03:32:23;49.97;;;18.40;;
67869;SDS011;54673;52.262;6.830;2024-03-06T03:34:49;48.10;;;19.52;;
67869;SDS011;54673;52.262;6.830;2024-03-06T03:37:14;55.93;;;19.77;;
67869;SDS011;54673;52.262;6.830;2024-03-06T03:39:40;61.67;;;20.80;;
67869;SDS011;54673;52.262;6.830;2024-03-06T03:42:07;56.63;;;19.35;;
67869;SDS011;54673;52.262;6.830;2024-03-06T03:44:33;54.83;;;20.67;;
67869;SDS011;54673;52.262;6.830;2024-03-06T03:46:58;56.07;;;18.73;;
67869;SDS011;54673;52.262;6.830;2024-03-06T03:49:24;44.10;;;18.13;;
67869;SDS011;54673;52.262;6.830;2024-03-06T03:51:49;49.38;;;18.98;;
67869;SDS011;54673;52.262;6.830;2024-03-06T03:54:15;50.57;;;18.90;;
67869;SDS011;54673;52.262;6.830;2024-03-06T03:56:40;56.67;;;20.47;;
67869;SDS011;54673;52.262;6.830;2024-03-06T03:59:06;55.83;;;20.05;;
67869;SDS011;54673;52.262;6.830;2024-03-06T04:01:32;50.77;;;18.47;;
67869;SDS011;54673;52.262;6.830;2024-03-06T04:03:57;47.92;;;18.50;;
67869;SDS011;54673;52.262;6.830;2024-03-06T04:06:23;51.67;;;17.77;;
67869;SDS011;54673;52.262;6.830;2024-03-06T04:08:48;56.10;;;21.07;;
67869;SDS011;54673;52.262;6.830;2024-03-06T04:11:14;43.42;;;17.00;;
67869;SDS011;54673;52.262;6.830;2024-03-06T04:13:40;55.13;;;19.27;;
67869;SDS011;54673;52.262;6.830;2024-03-06T04:16:05;49.23;;;20.00;;
67869;SDS011;54673;52.262;6.830;2024-03-06T04:18:31;48.85;;;19.27;;
67869;SDS011;54673;52.262;6.830;2024-03-06T04:21:06;53.27;;;19.73;;
67869;SDS011;54673;52.262;6.830;2024-03-06T04:23:32;52.42;;;18.98;;
67869;SDS011;54673;52.262;6.830;2024-03-06T04:25:59;54.75;;;21.08;;
67869;SDS011;54673;52.262;6.830;2024-03-06T04:28:25;69.20;;;24.90;;
67869;SDS011;54673;52.262;6.830;2024-03-06T04:30:50;47.08;;;18.48;;
67869;SDS011;54673;52.262;6.830;2024-03-06T04:33:16;39.40;;;15.20;;
67869;SDS011;54673;52.262;6.830;2024-03-06T04:35:42;52.37;;;20.67;;
67869;SDS011;54673;52.262;6.830;2024-03-06T04:38:07;59.42;;;20.23;;
67869;SDS011;54673;52.262;6.830;2024-03-06T04:40:33;50.03;;;18.70;;
67869;SDS011;54673;52.262;6.830;2024-03-06T04:42:59;54.53;;;19.05;;
67869;SDS011;54673;52.262;6.830;2024-03-06T04:45:25;54.75;;;20.63;;
67869;SDS011;54673;52.262;6.830;2024-03-06T04:47:50;56.08;;;20.10;;
67869;SDS011;54673;52.262;6.830;2024-03-06T04:50:16;51.43;;;18.73;;
67869;SDS011;54673;52.262;6.830;2024-03-06T04:52:42;51.15;;;18.98;;
67869;SDS011;54673;52.262;6.830;2024-03-06T04:55:09;53.77;;;20.30;;
67869;SDS011;54673;52.262;6.830;2024-03-06T04:57:36;56.03;;;19.73;;
67869;SDS011;54673;52.262;6.830;2024-03-06T05:00:03;63.85;;;21.40;;
67869;SDS011;54673;52.262;6.830;2024-03-06T05:02:38;53.77;;;18.83;;
67869;SDS011;54673;52.262;6.830;2024-03-06T05:05:04;49.30;;;18.70;;
67869;SDS011;54673;52.262;6.830;2024-03-06T05:07:30;62.17;;;21.40;;
67869;SDS011;54673;52.262;6.830;2024-03-06T05:09:56;53.88;;;19.83;;
67869;SDS011;54673;52.262;6.830;2024-03-06T05:12:25;57.45;;;20.25;;
67869;SDS011;54673;52.262;6.830;2024-03-06T05:14:51;62.22;;;21.55;;
67869;SDS011;54673;52.262;6.830;2024-03-06T05:17:17;53.58;;;17.88;;
67869;SDS011;54673;52.262;6.830;2024-03-06T05:19:44;66.37;;;24.60;;
67869;SDS011;54673;52.262;6.830;2024-03-06T05:22:10;68.55;;;25.10;;
67869;SDS011;54673;52.262;6.830;2024-03-06T05:24:39;50.28;;;18.60;;
67869;SDS011;54673;52.262;6.830;2024-03-06T05:27:05;62.28;;;22.83;;
67869;SDS011;54673;52.262;6.830;2024-03-06T05:29:31;61.25;;;21.65;;
67869;SDS011;54673;52.262;6.830;2024-03-06T05:31:57;67.40;;;22.50;;
67869;SDS011;54673;52.262;6.830;2024-03-06T05:34:22;47.83;;;19.60;;
67869;SDS011;54673;52.262;6.830;2024-03-06T05:36:48;56.60;;;21.23;;
67869;SDS011;54673;52.262;6.830;2024-03-06T05:39:14;52.75;;;18.50;;
67869;SDS011;54673;52.262;6.830;2024-03-06T05:41:40;56.80;;;22.07;;
67869;SDS011;54673;52.262;6.830;2024-03-06T05:44:06;51.20;;;19.08;;
67869;SDS011;54673;52.262;6.830;2024-03-06T05:46:33;65.53;;;21.40;;
67869;SDS011;54673;52.262;6.830;2024-03-06T05:48:58;53.40;;;19.25;;
67869;SDS011;54673;52.262;6.830;2024-03-06T05:51:24;64.30;;;22.67;;
67869;SDS011;54673;52.262;6.830;2024-03-06T05:53:50;52.08;;;19.88;;
67869;SDS011;54673;52.262;6.830;2024-03-06T05:56:18;59.70;;;20.53;;
67869;SDS011;54673;52.262;6.830;2024-03-06T05:58:44;59.40;;;19.75;;
67869;SDS011;54673;52.262;6.830;2024-03-06T06:01:11;58.30;;;20.23;;
67869;SDS011;54673;52.262;6.830;2024-03-06T06:03:40;58.30;;;20.33;;
67869;SDS011;54673;52.262;6.830;2024-03-06T06:06:06;60.75;;;22.70;;
67869;SDS011;54673;52.262;6.830;2024-03-06T06:08:33;64.10;;;24.37;;
67869;SDS011;54673;52.262;6.830;2024-03-06T06:11:00;59.35;;;21.30;;
67869;SDS011;54673;52.262;6.830;2024-03-06T06:13:27;53.45;;;19.33;;
67869;SDS011;54673;52.262;6.830;2024-03-06T06:15:53;54.13;;;18.67;;
67869;SDS011;54673;52.262;6.830;2024-03-06T06:18:19;46.35;;;17.50;;
67869;SDS011;54673;52.262;6.830;2024-03-06T06:20:45;67.80;;;23.63;;
67869;SDS011;54673;52.262;6.830;2024-03-06T06:23:11;58.20;;;21.15;;
67869;SDS011;54673;52.262;6.830;2024-03-06T06:25:36;65.17;;;22.50;;
67869;SDS011;54673;52.262;6.830;2024-03-06T06:28:02;52.47;;;18.15;;
67869;SDS011;54673;52.262;6.830;2024-03-06T06:30:27;66.93;;;21.17;;
67869;SDS011;54673;52.262;6.830;2024-03-06T06:32:53;47.77;;;17.70;;
67869;SDS011;54673;52.262;6.830;2024-03-06T06:35:18;47.08;;;17.27;;
67869;SDS011;54673;52.262;6.830;2024-03-06T06:37:44;54.63;;;19.87;;
67869;SDS011;54673;52.262;6.830;2024-03-06T06:40:11;60.30;;;21.38;;
67869;SDS011;54673;52.262;6.830;2024-03-06T06:42:38;61.93;;;21.47;;
67869;SDS011;54673;52.262;6.830;2024-03-06T06:45:10;58.85;;;19.45;;
67869;SDS011;54673;52.262;6.830;2024-03-06T06:47:35;57.97;;;19.77;;
67869;SDS011;54673;52.262;6.830;2024-03-06T06:50:01;59.20;;;20.53;;
67869;SDS011;54673;52.262;6.830;2024-03-06T06:52:30;57.00;;;21.92;;
67869;SDS011;54673;52.262;6.830;2024-03-06T06:54:58;54.63;;;18.98;;
67869;SDS011;54673;52.262;6.830;2024-03-06T06:57:24;56.57;;;21.10;;
67869;SDS011;54673;52.262;6.830;2024-03-06T06:59:49;56.67;;;21.53;;
67869;SDS011;54673;52.262;6.830;2024-03-06T07:02:15;66.22;;;23.13;;
67869;SDS011;54673;52.262;6.830;2024-03-06T07:04:40;52.60;;;20.53;;
67869;SDS011;54673;52.262;6.830;2024-03-06T07:07:06;56.17;;;20.13;;
67869;SDS011;54673;52.262;6.830;2024-03-06T07:09:31;67.95;;;22.58;;
67869;SDS011;54673;52.262;6.830;2024-03-06T07:11:57;49.17;;;17.53;;
67869;SDS011;54673;52.262;6.830;2024-03-06T07:14:23;64.47;;;22.03;;
67869;SDS011;54673;52.262;6.830;2024-03-06T07:16:48;52.90;;;20.35;;
67869;SDS011;54673;52.262;6.830;2024-03-06T07:19:14;55.37;;;20.70;;
67869;SDS011;54673;52.262;6.830;2024-03-06T07:21:39;47.05;;;18.17;;
67869;SDS011;54673;52.262;6.830;2024-03-06T07:24:05;47.75;;;19.15;;
67869;SDS011;54673;52.262;6.830;2024-03-06T07:26:34;46.80;;;18.00;;
67869;SDS011;54673;52.262;6.830;2024-03-06T07:29:00;54.58;;;18.80;;
67869;SDS011;54673;52.262;6.830;2024-03-06T07:31:26;73.53;;;22.95;;
67869;SDS011;54673;52.262;6.830;2024-03-06T07:33:51;60.80;;;21.10;;
67869;SDS011;54673;52.262;6.830;2024-03-06T07:36:17;61.83;;;20.90;;
67869;SDS011;54673;52.262;6.830;2024-03-06T07:38:43;46.33;;;16.73;;
67869;SDS011;54673;52.262;6.830;2024-03-06T07:41:09;51.53;;;17.83;;
67869;SDS011;54673;52.262;6.830;2024-03-06T07:43:35;61.72;;;20.27;;
67869;SDS011;54673;52.262;6.830;2024-03-06T07:46:01;59.83;;;22.48;;
67869;SDS011;54673;52.262;6.830;2024-03-06T07:48:26;49.00;;;18.17;;
67869;SDS011;54673;52.262;6.830;2024-03-06T07:50:52;50.00;;;18.70;;
67869;SDS011;54673;52.262;6.830;2024-03-06T07:53:18;73.03;;;25.70;;
67869;SDS011;54673;52.262;6.830;2024-03-06T07:55:43;60.53;;;21.58;;
67869;SDS011;54673;52.262;6.830;2024-03-06T07:58:09;63.97;;;22.07;;
67869;SDS011;54673;52.262;6.830;2024-03-06T08:00:35;52.53;;;19.45;;
67869;SDS011;54673;52.262;6.830;2024-03-06T08:03:00;50.37;;;18.77;;
67869;SDS011;54673;52.262;6.830;2024-03-06T08:05:27;51.80;;;17.65;;
67869;SDS011;54673;52.262;6.830;2024-03-06T08:07:53;50.85;;;19.33;;
67869;SDS011;54673;52.262;6.830;2024-03-06T08:10:19;48.87;;;18.03;;
67869;SDS011;54673;52.262;6.830;2024-03-06T08:12:44;55.63;;;19.37;;
67869;SDS011;54673;52.262;6.830;2024-03-06T08:15:13;59.60;;;21.38;;
67869;SDS011;54673;52.262;6.830;2024-03-06T08:17:40;47.20;;;17.88;;
67869;SDS011;54673;52.262;6.830;2024-03-06T08:20:07;68.77;;;23.30;;
67869;SDS011;54673;52.262;6.830;2024-03-06T08:22:38;46.80;;;17.65;;
67869;SDS011;54673;52.262;6.830;2024-03-06T08:25:05;39.57;;;15.17;;
67869;SDS011;54673;52.262;6.830;2024-03-06T08:27:33;56.78;;;20.15;;
67869;SDS011;54673;52.262;6.830;2024-03-06T08:30:05;51.22;;;18.30;;
67869;SDS011;54673;52.262;6.830;2024-03-06T08:32:32;46.00;;;17.37;;
67869;SDS011;54673;52.262;6.830;2024-03-06T08:35:00;43.72;;;18.00;;
67869;SDS011;54673;52.262;6.830;2024-03-06T08:37:38;40.27;;;15.13;;
67869;SDS011;54673;52.262;6.830;2024-03-06T08:40:05;46.35;;;16.98;;
67869;SDS011;54673;52.262;6.830;2024-03-06T08:42:42;55.13;;;19.27;;
67869;SDS011;54673;52.262;6.830;2024-03-06T08:45:08;46.17;;;17.90;;
67869;SDS011;54673;52.262;6.830;2024-03-06T08:47:35;43.35;;;17.42;;
67869;SDS011;54673;52.262;6.830;2024-03-06T08:50:01;25.50;;;10.27;;
67869;SDS011;54673;52.262;6.830;2024-03-06T08:52:27;61.40;;;20.48;;
67869;SDS011;54673;52.262;6.830;2024-03-06T08:54:53;55.20;;;19.80;;
67869;SDS011;54673;52.262;6.830;2024-03-06T08:57:19;46.07;;;17.53;;
67869;SDS011;54673;52.262;6.830;2024-03-06T08:59:47;46.05;;;17.90;;
67869;SDS011;54673;52.262;6.830;2024-03-06T09:02:13;57.87;;;21.33;;
67869;SDS011;54673;52.262;6.830;2024-03-06T09:04:43;46.85;;;17.90;;
67869;SDS011;54673;52.262;6.830;2024-03-06T09:07:10;58.80;;;20.70;;
67869;SDS011;54673;52.262;6.830;2024-03-06T09:09:36;47.78;;;17.55;;
67869;SDS011;54673;52.262;6.830;2024-03-06T09:12:02;47.28;;;18.20;;
67869;SDS011;54673;52.262;6.830;2024-03-06T09:14:32;42.30;;;16.10;;
67869;SDS011;54673;52.262;6.830;2024-03-06T09:16:59;53.42;;;19.15;;
67869;SDS011;54673;52.262;6.830;2024-03-06T09:19:25;56.67;;;19.97;;
67869;SDS011;54673;52.262;6.830;2024-03-06T09:21:51;46.33;;;17.60;;
67869;SDS011;54673;52.262;6.830;2024-03-06T09:24:16;53.05;;;17.83;;
67869;SDS011;54673;52.262;6.830;2024-03-06T09:26:43;48.78;;;17.83;;
67869;SDS011;54673;52.262;6.830;2024-03-06T09:29:10;69.32;;;24.25;;
67869;SDS011;54673;52.262;6.830;2024-03-06T09:31:35;55.80;;;20.87;;
67869;SDS011;54673;52.262;6.830;2024-03-06T09:34:02;43.78;;;17.50;;
67869;SDS011;54673;52.262;6.830;2024-03-06T09:36:28;53.78;;;19.13;;
67869;SDS011;54673;52.262;6.830;2024-03-06T09:38:54;48.10;;;18.00;;
67869;SDS011;54673;52.262;6.830;2024-03-06T09:41:20;49.27;;;17.87;;
67869;SDS011;54673;52.262;6.830;2024-03-06T09:43:47;64.00;;;21.35;;
67869;SDS011;54673;52.262;6.830;2024-03-06T09:46:13;46.42;;;18.33;;
67869;SDS011;54673;52.262;6.830;2024-03-06T09:48:45;48.87;;;18.37;;
67869;SDS011;54673;52.262;6.830;2024-03-06T09:51:12;53.03;;;19.30;;
67869;SDS011;54673;52.262;6.830;2024-03-06T09:53:39;49.70;;;18.27;;
67869;SDS011;54673;52.262;6.830;2024-03-06T09:56:07;61.13;;;20.92;;
67869;SDS011;54673;52.262;6.830;2024-03-06T09:58:33;45.33;;;16.80;;
67869;SDS011;54673;52.262;6.830;2024-03-06T10:00:59;48.33;;;16.67;;
67869;SDS011;54673;52.262;6.830;2024-03-06T10:03:28;41.75;;;15.90;;
67869;SDS011;54673;52.262;6.830;2024-03-06T10:05:54;51.10;;;19.30;;
67869;SDS011;54673;52.262;6.830;2024-03-06T10:08:21;52.30;;;18.77;;
67869;SDS011;54673;52.262;6.830;2024-03-06T10:10:50;46.55;;;17.30;;
67869;SDS011;54673;52.262;6.830;2024-03-06T10:13:16;55.63;;;18.93;;
67869;SDS011;54673;52.262;6.830;2024-03-06T10:15:42;46.83;;;17.55;;
67869;SDS011;54673;52.262;6.830;2024-03-06T10:18:21;45.13;;;17.50;;
67869;SDS011;54673;52.262;6.830;2024-03-06T10:20:47;45.50;;;17.90;;
67869;SDS011;54673;52.262;6.830;2024-03-06T10:23:12;59.27;;;19.50;;
67869;SDS011;54673;52.262;6.830;2024-03-06T10:25:39;52.13;;;18.52;;
67869;SDS011;54673;52.262;6.830;2024-03-06T10:28:09;40.95;;;15.35;;
67869;SDS011;54673;52.262;6.830;2024-03-06T10:30:36;45.40;;;16.70;;
67869;SDS011;54673;52.262;6.830;2024-03-06T10:33:06;43.47;;;16.95;;
67869;SDS011;54673;52.262;6.830;2024-03-06T10:35:33;53.23;;;19.43;;
67869;SDS011;54673;52.262;6.830;2024-03-06T10:38:03;39.30;;;14.68;;
67869;SDS011;54673;52.262;6.830;2024-03-06T10:40:34;48.20;;;19.85;;
67869;SDS011;54673;52.262;6.830;2024-03-06T10:43:01;45.67;;;19.30;;
67869;SDS011;54673;52.262;6.830;2024-03-06T10:45:47;50.00;;;19.05;;
67869;SDS011;54673;52.262;6.830;2024-03-06T10:48:17;40.50;;;16.23;;
67869;SDS011;54673;52.262;6.830;2024-03-06T10:50:44;42.28;;;17.42;;
67869;SDS011;54673;52.262;6.830;2024-03-06T10:53:19;52.53;;;17.98;;
67869;SDS011;54673;52.262;6.830;2024-03-06T10:55:46;47.50;;;19.13;;
67869;SDS011;54673;52.262;6.830;2024-03-06T10:58:13;45.10;;;17.88;;
67869;SDS011;54673;52.262;6.830;2024-03-06T11:00:40;53.43;;;18.87;;
67869;SDS011;54673;52.262;6.830;2024-03-06T11:03:06;46.92;;;17.10;;
67869;SDS011;54673;52.262;6.830;2024-03-06T11:05:36;48.85;;;17.65;;
67869;SDS011;54673;52.262;6.830;2024-03-06T11:08:05;49.40;;;18.47;;
67869;SDS011;54673;52.262;6.830;2024-03-06T11:10:35;51.50;;;19.02;;
67869;SDS011;54673;52.262;6.830;2024-03-06T11:13:20;47.97;;;18.03;;
67869;SDS011;54673;52.262;6.830;2024-03-06T11:15:50;41.35;;;17.30;;
67869;SDS011;54673;52.262;6.830;2024-03-06T11:23:27;45.33;;;18.38;;
67869;SDS011;54673;52.262;6.830;2024-03-06T11:28:27;44.38;;;17.48;;
67869;SDS011;54673;52.262;6.830;2024-03-06T11:36:12;49.65;;;18.15;;
67869;SDS011;54673;52.262;6.830;2024-03-06T11:38:58;41.47;;;16.27;;
67869;SDS011;54673;52.262;6.830;2024-03-06T11:41:28;39.10;;;15.98;;
67869;SDS011;54673;52.262;6.830;2024-03-06T11:43:56;47.22;;;18.58;;
67869;SDS011;54673;52.262;6.830;2024-03-06T11:49:18;43.47;;;17.20;;
67869;SDS011;54673;52.262;6.830;2024-03-06T11:51:51;36.17;;;13.83;;
67869;SDS011;54673;52.262;6.830;2024-03-06T11:54:18;45.83;;;16.85;;
67869;SDS011;54673;52.262;6.830;2024-03-06T11:56:48;47.40;;;17.52;;
67869;SDS011;54673;52.262;6.830;2024-03-06T11:59:16;42.63;;;17.30;;
67869;SDS011;54673;52.262;6.830;2024-03-06T12:01:42;42.67;;;16.20;;
67869;SDS011;54673;52.262;6.830;2024-03-06T12:04:07;46.93;;;17.53;;
67869;SDS011;54673;52.262;6.830;2024-03-06T12:06:33;44.15;;;17.10;;
67869;SDS011;54673;52.262;6.830;2024-03-06T12:08:59;40.33;;;15.87;;
67869;SDS011;54673;52.262;6.830;2024-03-06T12:11:25;42.22;;;15.75;;
67869;SDS011;54673;52.262;6.830;2024-03-06T12:13:51;46.57;;;16.23;;
67869;SDS011;54673;52.262;6.830;2024-03-06T12:16:17;39.25;;;15.98;;
67869;SDS011;54673;52.262;6.830;2024-03-06T12:18:43;43.60;;;16.50;;
67869;SDS011;54673;52.262;6.830;2024-03-06T12:21:10;35.85;;;15.50;;
67869;SDS011;54673;52.262;6.830;2024-03-06T12:23:36;34.90;;;14.52;;
67869;SDS011;54673;52.262;6.830;2024-03-06T12:26:02;41.53;;;17.47;;
67869;SDS011;54673;52.262;6.830;2024-03-06T12:28:28;40.50;;;16.92;;
67869;SDS011;54673;52.262;6.830;2024-03-06T12:30:54;35.33;;;14.03;;
67869;SDS011;54673;52.262;6.830;2024-03-06T12:33:20;37.53;;;16.50;;
67869;SDS011;54673;52.262;6.830;2024-03-06T12:35:45;41.05;;;16.90;;
67869;SDS011;54673;52.262;6.830;2024-03-06T12:38:12;40.73;;;16.27;;
67869;SDS011;54673;52.262;6.830;2024-03-06T12:40:38;36.63;;;16.10;;
67869;SDS011;54673;52.262;6.830;2024-03-06T12:43:04;29.75;;;13.18;;
67869;SDS011;54673;52.262;6.830;2024-03-06T12:45:30;34.10;;;16.10;;
67869;SDS011;54673;52.262;6.830;2024-03-06T12:47:56;38.83;;;16.20;;
67869;SDS011;54673;52.262;6.830;2024-03-06T12:50:22;34.20;;;14.75;;
67869;SDS011;54673;52.262;6.830;2024-03-06T12:52:48;39.30;;;15.18;;
67869;SDS011;54673;52.262;6.830;2024-03-06T12:55:14;30.10;;;13.97;;
67869;SDS011;54673;52.262;6.830;2024-03-06T12:57:39;30.83;;;14.73;;
67869;SDS011;54673;52.262;6.830;2024-03-06T13:00:05;30.70;;;13.73;;
67869;SDS011;54673;52.262;6.830;2024-03-06T13:02:40;30.20;;;13.00;;
67869;SDS011;54673;52.262;6.830;2024-03-06T13:05:07;28.08;;;12.25;;
67869;SDS011;54673;52.262;6.830;2024-03-06T13:07:33;30.73;;;13.80;;
67869;SDS011;54673;52.262;6.830;2024-03-06T13:09:58;30.33;;;13.68;;
67869;SDS011;54673;52.262;6.830;2024-03-06T13:12:24;31.33;;;13.50;;
67869;SDS011;54673;52.262;6.830;2024-03-06T13:14:49;26.73;;;11.77;;
67869;SDS011;54673;52.262;6.830;2024-03-06T13:17:15;26.13;;;12.35;;
67869;SDS011;54673;52.262;6.830;2024-03-06T13:19:40;22.40;;;10.43;;
67869;SDS011;54673;52.262;6.830;2024-03-06T13:22:06;24.80;;;13.13;;
67869;SDS011;54673;52.262;6.830;2024-03-06T13:24:32;26.77;;;12.63;;
67869;SDS011;54673;52.262;6.830;2024-03-06T13:26:58;25.90;;;12.07;;
67869;SDS011;54673;52.262;6.830;2024-03-06T13:29:25;25.37;;;11.60;;
67869;SDS011;54673;52.262;6.830;2024-03-06T13:31:50;23.60;;;11.07;;
67869;SDS011;54673;52.262;6.830;2024-03-06T13:34:16;30.42;;;12.48;;
67869;SDS011;54673;52.262;6.830;2024-03-06T13:36:41;25.87;;;11.50;;
67869;SDS011;54673;52.262;6.830;2024-03-06T13:39:08;26.25;;;11.68;;
67869;SDS011;54673;52.262;6.830;2024-03-06T13:41:34;26.23;;;11.83;;
67869;SDS011;54673;52.262;6.830;2024-03-06T13:43:59;27.73;;;12.30;;
67869;SDS011;54673;52.262;6.830;2024-03-06T13:46:25;19.53;;;9.93;;
67869;SDS011;54673;52.262;6.830;2024-03-06T13:48:51;27.97;;;11.77;;
67869;SDS011;54673;52.262;6.830;2024-03-06T13:51:16;26.13;;;9.90;;
67869;SDS011;54673;52.262;6.830;2024-03-06T13:53:42;25.83;;;11.83;;
67869;SDS011;54673;52.262;6.830;2024-03-06T13:56:07;29.13;;;12.20;;
67869;SDS011;54673;52.262;6.830;2024-03-06T13:58:33;24.58;;;12.02;;
67869;SDS011;54673;52.262;6.830;2024-03-06T14:00:59;27.93;;;12.13;;
67869;SDS011;54673;52.262;6.830;2024-03-06T14:03:24;28.00;;;12.50;;
67869;SDS011;54673;52.262;6.830;2024-03-06T14:05:50;26.30;;;11.33;;
67869;SDS011;54673;52.262;6.830;2024-03-06T14:08:16;24.48;;;11.02;;
67869;SDS011;54673;52.262;6.830;2024-03-06T14:10:42;20.73;;;9.13;;
67869;SDS011;54673;52.262;6.830;2024-03-06T14:13:08;23.05;;;11.05;;
67869;SDS011;54673;52.262;6.830;2024-03-06T14:15:34;24.73;;;11.37;;
67869;SDS011;54673;52.262;6.830;2024-03-06T14:18:00;25.90;;;12.18;;
67869;SDS011;54673;52.262;6.830;2024-03-06T14:20:26;26.33;;;10.90;;
67869;SDS011;54673;52.262;6.830;2024-03-06T14:22:53;24.83;;;11.50;;
67869;SDS011;54673;52.262;6.830;2024-03-06T14:25:18;27.55;;;12.13;;
67869;SDS011;54673;52.262;6.830;2024-03-06T14:27:44;27.77;;;12.07;;
67869;SDS011;54673;52.262;6.830;2024-03-06T14:30:12;26.00;;;11.73;;
67869;SDS011;54673;52.262;6.830;2024-03-06T14:32:39;48.13;;;12.20;;
67869;SDS011;54673;52.262;6.830;2024-03-06T14:35:05;22.27;;;8.57;;